sensor_id;sensor_type;location;lat;lon;timestamp;temperature;humidity
37788;DHT22;23627;53.302;-6.362;2022-07-24T00:02:22;19.10;99.90
37788;DHT22;23627;53.302;-6.362;2022-07-24T00:04:48;19.10;99.90
37788;DHT22;23627;53.302;-6.362;2022-07-24T00:07:14;19.00;99.90
37788;DHT22;23627;53.302;-6.362;2022-07-24T00:09:40;19.00;99.90
37788;DHT22;23627;53.302;-6.362;2022-07-24T00:12:06;19.00;99.90
37788;DHT22;23627;53.302;-6.362;2022-07-24T00:14:31;19.00;99.90
37788;DHT22;23627;53.302;-6.362;2022-07-24T00:16:57;18.90;99.90
37788;DHT22;23627;53.302;-6.362;2022-07-24T00:19:23;18.90;99.90
37788;DHT22;23627;53.302;-6.362;2022-07-24T00:21:49;18.80;99.90
37788;DHT22;23627;53.302;-6.362;2022-07-24T00:24:14;18.90;99.90
37788;DHT22;23627;53.302;-6.362;2022-07-24T00:26:40;18.90;99.90
37788;DHT22;23627;53.302;-6.362;2022-07-24T00:29:07;18.90;99.90
37788;DHT22;23627;53.302;-6.362;2022-07-24T00:31:32;18.90;99.90
37788;DHT22;23627;53.302;-6.362;2022-07-24T00:33:58;18.90;99.90
37788;DHT22;23627;53.302;-6.362;2022-07-24T00:36:24;18.90;99.90
37788;DHT22;23627;53.302;-6.362;2022-07-24T00:38:50;18.90;99.90
37788;DHT22;23627;53.302;-6.362;2022-07-24T00:41:15;18.90;99.90
37788;DHT22;23627;53.302;-6.362;2022-07-24T00:43:59;18.80;99.90
37788;DHT22;23627;53.302;-6.362;2022-07-24T00:46:25;18.80;99.90
37788;DHT22;23627;53.302;-6.362;2022-07-24T00:48:51;18.80;99.90
37788;DHT22;23627;53.302;-6.362;2022-07-24T00:51:17;18.70;99.90
37788;DHT22;23627;53.302;-6.362;2022-07-24T00:53:43;18.70;99.90
37788;DHT22;23627;53.302;-6.362;2022-07-24T00:56:08;18.70;99.90
37788;DHT22;23627;53.302;-6.362;2022-07-24T00:58:34;18.70;99.90
37788;DHT22;23627;53.302;-6.362;2022-07-24T01:01:00;18.70;99.90
37788;DHT22;23627;53.302;-6.362;2022-07-24T01:03:26;18.70;99.90
37788;DHT22;23627;53.302;-6.362;2022-07-24T01:05:51;18.80;99.90
37788;DHT22;23627;53.302;-6.362;2022-07-24T01:08:17;18.80;99.90
37788;DHT22;23627;53.302;-6.362;2022-07-24T01:10:43;18.80;99.90
37788;DHT22;23627;53.302;-6.362;2022-07-24T01:13:10;18.80;99.90
37788;DHT22;23627;53.302;-6.362;2022-07-24T01:15:36;18.70;99.90
37788;DHT22;23627;53.302;-6.362;2022-07-24T01:18:02;18.80;99.90
37788;DHT22;23627;53.302;-6.362;2022-07-24T01:20:28;18.70;99.90
37788;DHT22;23627;53.302;-6.362;2022-07-24T01:22:54;18.70;99.90
37788;DHT22;23627;53.302;-6.362;2022-07-24T01:25:19;18.70;99.90
37788;DHT22;23627;53.302;-6.362;2022-07-24T01:27:45;18.70;99.90
37788;DHT22;23627;53.302;-6.362;2022-07-24T01:30:11;18.70;99.90
37788;DHT22;23627;53.302;-6.362;2022-07-24T01:32:37;18.70;99.90
37788;DHT22;23627;53.302;-6.362;2022-07-24T01:35:04;18.70;99.90
37788;DHT22;23627;53.302;-6.362;2022-07-24T01:37:30;18.60;99.90
37788;DHT22;23627;53.302;-6.362;2022-07-24T01:39:55;18.70;99.90
37788;DHT22;23627;53.302;-6.362;2022-07-24T01:42:21;18.70;99.90
37788;DHT22;23627;53.302;-6.362;2022-07-24T01:44:49;18.70;99.90
37788;DHT22;23627;53.302;-6.362;2022-07-24T01:47:15;18.60;99.90
37788;DHT22;23627;53.302;-6.362;2022-07-24T01:49:41;18.60;99.90
37788;DHT22;23627;53.302;-6.362;2022-07-24T01:52:08;18.50;99.90
37788;DHT22;23627;53.302;-6.362;2022-07-24T01:54:34;18.50;99.90
37788;DHT22;23627;53.302;-6.362;2022-07-24T01:56:59;18.50;99.90
37788;DHT22;23627;53.302;-6.362;2022-07-24T01:59:25;18.50;99.90
37788;DHT22;23627;53.302;-6.362;2022-07-24T02:01:51;18.40;99.90
37788;DHT22;23627;53.302;-6.362;2022-07-24T02:04:17;18.40;99.90
37788;DHT22;23627;53.302;-6.362;2022-07-24T02:06:42;18.20;99.90
37788;DHT22;23627;53.302;-6.362;2022-07-24T02:09:08;18.20;99.90
37788;DHT22;23627;53.302;-6.362;2022-07-24T02:11:34;18.20;99.90
37788;DHT22;23627;53.302;-6.362;2022-07-24T02:13:59;18.20;99.90
37788;DHT22;23627;53.302;-6.362;2022-07-24T02:16:26;18.20;99.90
37788;DHT22;23627;53.302;-6.362;2022-07-24T02:18:52;18.10;99.90
37788;DHT22;23627;53.302;-6.362;2022-07-24T02:21:17;18.20;99.90
37788;DHT22;23627;53.302;-6.362;2022-07-24T02:23:43;18.20;99.90
37788;DHT22;23627;53.302;-6.362;2022-07-24T02:26:09;18.20;99.90
37788;DHT22;23627;53.302;-6.362;2022-07-24T02:28:35;18.10;99.90
37788;DHT22;23627;53.302;-6.362;2022-07-24T02:31:00;18.00;99.90
37788;DHT22;23627;53.302;-6.362;2022-07-24T02:33:26;18.10;99.90
37788;DHT22;23627;53.302;-6.362;2022-07-24T02:35:52;18.00;99.90
37788;DHT22;23627;53.302;-6.362;2022-07-24T02:38:18;18.00;99.90
37788;DHT22;23627;53.302;-6.362;2022-07-24T02:40:43;18.00;99.90
37788;DHT22;23627;53.302;-6.362;2022-07-24T02:43:09;18.00;99.90
37788;DHT22;23627;53.302;-6.362;2022-07-24T02:45:35;18.00;99.90
37788;DHT22;23627;53.302;-6.362;2022-07-24T02:48:00;18.00;99.90
37788;DHT22;23627;53.302;-6.362;2022-07-24T02:50:30;18.00;99.90
37788;DHT22;23627;53.302;-6.362;2022-07-24T02:52:57;17.90;99.90
37788;DHT22;23627;53.302;-6.362;2022-07-24T02:55:23;18.00;99.90
37788;DHT22;23627;53.302;-6.362;2022-07-24T02:57:49;18.00;99.90
37788;DHT22;23627;53.302;-6.362;2022-07-24T03:00:16;18.00;99.90
37788;DHT22;23627;53.302;-6.362;2022-07-24T03:02:43;17.90;99.90
37788;DHT22;23627;53.302;-6.362;2022-07-24T03:05:09;17.80;99.90
37788;DHT22;23627;53.302;-6.362;2022-07-24T03:07:36;17.80;99.90
37788;DHT22;23627;53.302;-6.362;2022-07-24T03:10:06;17.80;99.90
37788;DHT22;23627;53.302;-6.362;2022-07-24T03:12:32;17.80;99.90
37788;DHT22;23627;53.302;-6.362;2022-07-24T03:14:58;17.80;99.90
37788;DHT22;23627;53.302;-6.362;2022-07-24T03:17:24;17.80;99.90
37788;DHT22;23627;53.302;-6.362;2022-07-24T03:19:50;17.70;99.90
37788;DHT22;23627;53.302;-6.362;2022-07-24T03:22:16;17.70;99.90
37788;DHT22;23627;53.302;-6.362;2022-07-24T03:24:41;17.60;99.90
37788;DHT22;23627;53.302;-6.362;2022-07-24T03:27:07;17.70;99.90
37788;DHT22;23627;53.302;-6.362;2022-07-24T03:29:33;17.80;99.90
37788;DHT22;23627;53.302;-6.362;2022-07-24T03:31:59;17.80;99.90
37788;DHT22;23627;53.302;-6.362;2022-07-24T03:34:25;17.80;99.90
37788;DHT22;23627;53.302;-6.362;2022-07-24T03:36:51;17.80;99.90
37788;DHT22;23627;53.302;-6.362;2022-07-24T03:39:16;17.80;99.90
37788;DHT22;23627;53.302;-6.362;2022-07-24T03:41:42;17.80;99.90
37788;DHT22;23627;53.302;-6.362;2022-07-24T03:44:08;17.90;99.90
37788;DHT22;23627;53.302;-6.362;2022-07-24T03:46:34;17.80;99.90
37788;DHT22;23627;53.302;-6.362;2022-07-24T03:49:00;17.90;99.90
37788;DHT22;23627;53.302;-6.362;2022-07-24T03:51:26;17.90;99.90
37788;DHT22;23627;53.302;-6.362;2022-07-24T03:53:52;17.90;99.90
37788;DHT22;23627;53.302;-6.362;2022-07-24T03:56:18;17.80;99.90
37788;DHT22;23627;53.302;-6.362;2022-07-24T03:58:44;17.80;99.90
37788;DHT22;23627;53.302;-6.362;2022-07-24T04:01:10;17.80;99.90
37788;DHT22;23627;53.302;-6.362;2022-07-24T04:03:36;17.80;99.90
37788;DHT22;23627;53.302;-6.362;2022-07-24T04:06:05;17.80;99.90
37788;DHT22;23627;53.302;-6.362;2022-07-24T04:08:32;17.70;99.90
37788;DHT22;23627;53.302;-6.362;2022-07-24T04:10:58;17.80;99.90
37788;DHT22;23627;53.302;-6.362;2022-07-24T04:13:29;17.80;99.90
37788;DHT22;23627;53.302;-6.362;2022-07-24T04:15:55;17.80;99.90
37788;DHT22;23627;53.302;-6.362;2022-07-24T04:18:22;17.70;99.90
37788;DHT22;23627;53.302;-6.362;2022-07-24T04:20:48;17.80;99.90
37788;DHT22;23627;53.302;-6.362;2022-07-24T04:23:14;17.70;99.90
37788;DHT22;23627;53.302;-6.362;2022-07-24T04:25:40;17.70;99.90
37788;DHT22;23627;53.302;-6.362;2022-07-24T04:28:05;17.60;99.90
37788;DHT22;23627;53.302;-6.362;2022-07-24T04:30:31;17.60;99.90
37788;DHT22;23627;53.302;-6.362;2022-07-24T04:32:57;17.60;99.90
37788;DHT22;23627;53.302;-6.362;2022-07-24T04:35:23;17.60;99.90
37788;DHT22;23627;53.302;-6.362;2022-07-24T04:37:49;17.70;99.90
37788;DHT22;23627;53.302;-6.362;2022-07-24T04:40:15;17.70;99.90
37788;DHT22;23627;53.302;-6.362;2022-07-24T04:42:41;17.80;99.90
37788;DHT22;23627;53.302;-6.362;2022-07-24T04:45:07;17.70;99.90
37788;DHT22;23627;53.302;-6.362;2022-07-24T04:47:35;17.80;99.90
37788;DHT22;23627;53.302;-6.362;2022-07-24T04:50:02;17.70;99.90
37788;DHT22;23627;53.302;-6.362;2022-07-24T04:52:28;17.70;99.90
37788;DHT22;23627;53.302;-6.362;2022-07-24T04:54:53;17.70;99.90
37788;DHT22;23627;53.302;-6.362;2022-07-24T04:57:19;17.70;99.90
37788;DHT22;23627;53.302;-6.362;2022-07-24T04:59:45;17.70;99.90
37788;DHT22;23627;53.302;-6.362;2022-07-24T05:02:10;17.60;99.90
37788;DHT22;23627;53.302;-6.362;2022-07-24T05:04:36;17.60;99.90
37788;DHT22;23627;53.302;-6.362;2022-07-24T05:07:03;17.60;99.90
37788;DHT22;23627;53.302;-6.362;2022-07-24T05:09:29;17.70;99.90
37788;DHT22;23627;53.302;-6.362;2022-07-24T05:11:55;17.70;99.90
37788;DHT22;23627;53.302;-6.362;2022-07-24T05:14:21;17.70;99.90
37788;DHT22;23627;53.302;-6.362;2022-07-24T05:16:46;17.70;99.90
37788;DHT22;23627;53.302;-6.362;2022-07-24T05:19:12;17.70;99.90
37788;DHT22;23627;53.302;-6.362;2022-07-24T05:21:38;17.70;99.90
37788;DHT22;23627;53.302;-6.362;2022-07-24T05:24:04;17.70;99.90
37788;DHT22;23627;53.302;-6.362;2022-07-24T05:26:30;17.70;99.90
37788;DHT22;23627;53.302;-6.362;2022-07-24T05:29:01;17.70;99.90
37788;DHT22;23627;53.302;-6.362;2022-07-24T05:31:27;17.70;99.90
37788;DHT22;23627;53.302;-6.362;2022-07-24T05:33:53;17.80;99.90
37788;DHT22;23627;53.302;-6.362;2022-07-24T05:36:20;17.70;99.90
37788;DHT22;23627;53.302;-6.362;2022-07-24T05:38:46;17.70;99.90
37788;DHT22;23627;53.302;-6.362;2022-07-24T05:41:12;17.70;99.90
37788;DHT22;23627;53.302;-6.362;2022-07-24T05:43:38;17.70;99.90
37788;DHT22;23627;53.302;-6.362;2022-07-24T05:46:04;17.70;99.90
37788;DHT22;23627;53.302;-6.362;2022-07-24T05:48:30;17.80;99.90
37788;DHT22;23627;53.302;-6.362;2022-07-24T05:50:56;17.80;99.90
37788;DHT22;23627;53.302;-6.362;2022-07-24T05:53:22;17.80;99.90
37788;DHT22;23627;53.302;-6.362;2022-07-24T05:55:49;17.90;99.90
37788;DHT22;23627;53.302;-6.362;2022-07-24T05:58:15;17.90;99.90
37788;DHT22;23627;53.302;-6.362;2022-07-24T06:00:41;17.90;99.90
37788;DHT22;23627;53.302;-6.362;2022-07-24T06:03:07;18.00;99.90
37788;DHT22;23627;53.302;-6.362;2022-07-24T06:05:33;18.00;99.90
37788;DHT22;23627;53.302;-6.362;2022-07-24T06:07:59;18.00;99.90
37788;DHT22;23627;53.302;-6.362;2022-07-24T06:10:25;18.00;99.90
37788;DHT22;23627;53.302;-6.362;2022-07-24T06:12:50;18.00;99.90
37788;DHT22;23627;53.302;-6.362;2022-07-24T06:15:16;18.00;99.90
37788;DHT22;23627;53.302;-6.362;2022-07-24T06:17:42;18.10;99.90
37788;DHT22;23627;53.302;-6.362;2022-07-24T06:20:09;18.10;99.90
37788;DHT22;23627;53.302;-6.362;2022-07-24T06:22:38;18.20;99.90
37788;DHT22;23627;53.302;-6.362;2022-07-24T06:25:05;18.20;99.90
37788;DHT22;23627;53.302;-6.362;2022-07-24T06:27:30;18.20;99.90
37788;DHT22;23627;53.302;-6.362;2022-07-24T06:29:56;18.30;99.90
37788;DHT22;23627;53.302;-6.362;2022-07-24T06:32:22;18.30;99.90
37788;DHT22;23627;53.302;-6.362;2022-07-24T06:34:47;18.30;99.90
37788;DHT22;23627;53.302;-6.362;2022-07-24T06:37:14;18.30;99.90
37788;DHT22;23627;53.302;-6.362;2022-07-24T06:39:40;18.30;99.90
37788;DHT22;23627;53.302;-6.362;2022-07-24T06:42:05;18.30;99.90
37788;DHT22;23627;53.302;-6.362;2022-07-24T06:44:31;18.20;99.90
37788;DHT22;23627;53.302;-6.362;2022-07-24T06:46:59;18.30;99.90
37788;DHT22;23627;53.302;-6.362;2022-07-24T06:49:24;18.30;99.90
37788;DHT22;23627;53.302;-6.362;2022-07-24T06:51:50;18.30;99.90
37788;DHT22;23627;53.302;-6.362;2022-07-24T06:54:16;18.30;99.90
37788;DHT22;23627;53.302;-6.362;2022-07-24T06:56:42;18.40;99.90
37788;DHT22;23627;53.302;-6.362;2022-07-24T06:59:08;18.30;99.90
37788;DHT22;23627;53.302;-6.362;2022-07-24T07:01:33;18.30;99.90
37788;DHT22;23627;53.302;-6.362;2022-07-24T07:03:59;18.30;99.90
37788;DHT22;23627;53.302;-6.362;2022-07-24T07:06:25;18.30;99.90
37788;DHT22;23627;53.302;-6.362;2022-07-24T07:08:51;18.30;99.90
37788;DHT22;23627;53.302;-6.362;2022-07-24T07:11:17;18.30;99.90
37788;DHT22;23627;53.302;-6.362;2022-07-24T07:13:42;18.30;99.90
37788;DHT22;23627;53.302;-6.362;2022-07-24T07:16:08;18.40;99.90
37788;DHT22;23627;53.302;-6.362;2022-07-24T07:18:34;18.50;99.90
37788;DHT22;23627;53.302;-6.362;2022-07-24T07:21:02;18.60;99.90
37788;DHT22;23627;53.302;-6.362;2022-07-24T07:23:28;18.80;99.90
37788;DHT22;23627;53.302;-6.362;2022-07-24T07:25:54;18.90;99.90
37788;DHT22;23627;53.302;-6.362;2022-07-24T07:28:20;19.00;99.90
37788;DHT22;23627;53.302;-6.362;2022-07-24T07:30:46;19.00;99.90
37788;DHT22;23627;53.302;-6.362;2022-07-24T07:33:12;19.10;99.90
37788;DHT22;23627;53.302;-6.362;2022-07-24T07:35:38;19.10;99.90
37788;DHT22;23627;53.302;-6.362;2022-07-24T07:38:04;19.10;99.90
37788;DHT22;23627;53.302;-6.362;2022-07-24T07:40:30;19.00;99.90
37788;DHT22;23627;53.302;-6.362;2022-07-24T07:42:55;19.00;99.90
37788;DHT22;23627;53.302;-6.362;2022-07-24T07:45:21;19.00;99.90
37788;DHT22;23627;53.302;-6.362;2022-07-24T07:47:47;19.10;99.90
37788;DHT22;23627;53.302;-6.362;2022-07-24T07:50:13;19.20;99.90
37788;DHT22;23627;53.302;-6.362;2022-07-24T07:52:40;19.30;99.90
37788;DHT22;23627;53.302;-6.362;2022-07-24T07:55:06;19.30;99.90
37788;DHT22;23627;53.302;-6.362;2022-07-24T07:57:32;19.50;99.90
37788;DHT22;23627;53.302;-6.362;2022-07-24T07:59:58;19.60;99.90
37788;DHT22;23627;53.302;-6.362;2022-07-24T08:02:24;19.70;99.90
37788;DHT22;23627;53.302;-6.362;2022-07-24T08:04:49;19.70;99.90
37788;DHT22;23627;53.302;-6.362;2022-07-24T08:07:15;19.70;99.90
37788;DHT22;23627;53.302;-6.362;2022-07-24T08:09:41;19.70;99.90
37788;DHT22;23627;53.302;-6.362;2022-07-24T08:12:07;19.70;99.90
37788;DHT22;23627;53.302;-6.362;2022-07-24T08:14:33;19.80;99.90
37788;DHT22;23627;53.302;-6.362;2022-07-24T08:16:59;19.90;99.90
37788;DHT22;23627;53.302;-6.362;2022-07-24T08:19:25;19.90;99.90
37788;DHT22;23627;53.302;-6.362;2022-07-24T08:21:50;20.20;99.90
37788;DHT22;23627;53.302;-6.362;2022-07-24T08:24:16;20.50;99.90
37788;DHT22;23627;53.302;-6.362;2022-07-24T08:26:49;20.90;99.90
37788;DHT22;23627;53.302;-6.362;2022-07-24T08:29:16;21.20;99.90
37788;DHT22;23627;53.302;-6.362;2022-07-24T08:31:42;21.30;99.90
37788;DHT22;23627;53.302;-6.362;2022-07-24T08:34:08;21.50;99.90
37788;DHT22;23627;53.302;-6.362;2022-07-24T08:36:34;21.60;99.90
37788;DHT22;23627;53.302;-6.362;2022-07-24T08:39:00;21.60;99.90
37788;DHT22;23627;53.302;-6.362;2022-07-24T08:41:30;21.80;99.90
37788;DHT22;23627;53.302;-6.362;2022-07-24T08:43:59;22.00;99.90
37788;DHT22;23627;53.302;-6.362;2022-07-24T08:46:27;22.20;99.90
37788;DHT22;23627;53.302;-6.362;2022-07-24T08:48:53;22.40;99.90
37788;DHT22;23627;53.302;-6.362;2022-07-24T08:51:20;22.40;99.90
37788;DHT22;23627;53.302;-6.362;2022-07-24T08:53:46;22.50;99.90
37788;DHT22;23627;53.302;-6.362;2022-07-24T08:56:13;22.70;99.90
37788;DHT22;23627;53.302;-6.362;2022-07-24T08:58:40;22.80;99.90
37788;DHT22;23627;53.302;-6.362;2022-07-24T09:01:07;22.70;99.90
37788;DHT22;23627;53.302;-6.362;2022-07-24T09:03:42;22.70;99.90
37788;DHT22;23627;53.302;-6.362;2022-07-24T09:06:11;22.80;99.90
37788;DHT22;23627;53.302;-6.362;2022-07-24T09:09:02;23.00;99.90
37788;DHT22;23627;53.302;-6.362;2022-07-24T09:11:28;23.10;99.90
37788;DHT22;23627;53.302;-6.362;2022-07-24T09:14:02;23.20;99.90
37788;DHT22;23627;53.302;-6.362;2022-07-24T09:16:47;23.10;99.90
37788;DHT22;23627;53.302;-6.362;2022-07-24T09:19:14;23.30;99.90
37788;DHT22;23627;53.302;-6.362;2022-07-24T09:21:42;23.40;99.90
37788;DHT22;23627;53.302;-6.362;2022-07-24T09:24:21;23.50;99.90
37788;DHT22;23627;53.302;-6.362;2022-07-24T09:26:48;23.50;99.90
37788;DHT22;23627;53.302;-6.362;2022-07-24T09:29:16;23.50;99.90
37788;DHT22;23627;53.302;-6.362;2022-07-24T09:31:55;23.40;99.90
37788;DHT22;23627;53.302;-6.362;2022-07-24T09:34:23;23.40;99.90
37788;DHT22;23627;53.302;-6.362;2022-07-24T09:37:00;23.30;99.90
37788;DHT22;23627;53.302;-6.362;2022-07-24T09:39:28;23.30;99.90
37788;DHT22;23627;53.302;-6.362;2022-07-24T09:41:55;23.30;99.90
37788;DHT22;23627;53.302;-6.362;2022-07-24T09:44:21;23.30;99.90
37788;DHT22;23627;53.302;-6.362;2022-07-24T09:49:25;23.60;99.90
37788;DHT22;23627;53.302;-6.362;2022-07-24T09:52:19;23.60;99.90
37788;DHT22;23627;53.302;-6.362;2022-07-24T09:54:50;23.70;99.90
37788;DHT22;23627;53.302;-6.362;2022-07-24T09:57:29;23.70;99.90
37788;DHT22;23627;53.302;-6.362;2022-07-24T09:59:57;23.80;99.90
37788;DHT22;23627;53.302;-6.362;2022-07-24T10:02:26;23.80;99.90
37788;DHT22;23627;53.302;-6.362;2022-07-24T10:04:53;24.00;99.90
37788;DHT22;23627;53.302;-6.362;2022-07-24T10:07:21;24.00;99.90
37788;DHT22;23627;53.302;-6.362;2022-07-24T10:09:49;24.00;99.90
37788;DHT22;23627;53.302;-6.362;2022-07-24T10:12:33;24.10;99.90
37788;DHT22;23627;53.302;-6.362;2022-07-24T10:15:01;24.10;99.90
37788;DHT22;23627;53.302;-6.362;2022-07-24T10:20:23;24.30;99.90
37788;DHT22;23627;53.302;-6.362;2022-07-24T10:23:20;24.30;99.90
37788;DHT22;23627;53.302;-6.362;2022-07-24T10:26:04;24.40;99.90
37788;DHT22;23627;53.302;-6.362;2022-07-24T10:28:41;24.40;99.90
37788;DHT22;23627;53.302;-6.362;2022-07-24T10:31:13;24.40;99.90
37788;DHT22;23627;53.302;-6.362;2022-07-24T10:33:40;24.40;99.90
37788;DHT22;23627;53.302;-6.362;2022-07-24T10:36:20;24.40;99.90
37788;DHT22;23627;53.302;-6.362;2022-07-24T10:39:04;24.30;99.90
37788;DHT22;23627;53.302;-6.362;2022-07-24T10:41:34;24.30;99.90
37788;DHT22;23627;53.302;-6.362;2022-07-24T10:44:17;24.30;99.90
37788;DHT22;23627;53.302;-6.362;2022-07-24T10:47:10;24.20;99.90
37788;DHT22;23627;53.302;-6.362;2022-07-24T10:49:50;24.10;99.90
37788;DHT22;23627;53.302;-6.362;2022-07-24T10:52:28;24.10;99.90
37788;DHT22;23627;53.302;-6.362;2022-07-24T10:55:22;24.20;99.90
37788;DHT22;23627;53.302;-6.362;2022-07-24T10:58:00;24.20;99.90
37788;DHT22;23627;53.302;-6.362;2022-07-24T11:00:40;24.30;99.90
37788;DHT22;23627;53.302;-6.362;2022-07-24T11:03:21;24.30;99.90
37788;DHT22;23627;53.302;-6.362;2022-07-24T11:08:50;24.20;99.90
37788;DHT22;23627;53.302;-6.362;2022-07-24T11:11:18;24.20;99.90
37788;DHT22;23627;53.302;-6.362;2022-07-24T11:13:55;24.10;99.90
37788;DHT22;23627;53.302;-6.362;2022-07-24T11:16:25;24.10;99.90
37788;DHT22;23627;53.302;-6.362;2022-07-24T11:21:40;24.30;99.90
37788;DHT22;23627;53.302;-6.362;2022-07-24T11:27:02;24.00;99.90
37788;DHT22;23627;53.302;-6.362;2022-07-24T11:29:32;24.10;99.90
37788;DHT22;23627;53.302;-6.362;2022-07-24T11:32:01;24.30;99.90
37788;DHT22;23627;53.302;-6.362;2022-07-24T11:34:29;24.20;99.90
37788;DHT22;23627;53.302;-6.362;2022-07-24T11:36:56;24.00;99.90
37788;DHT22;23627;53.302;-6.362;2022-07-24T11:39:42;24.20;99.90
37788;DHT22;23627;53.302;-6.362;2022-07-24T11:42:14;24.10;99.90
37788;DHT22;23627;53.302;-6.362;2022-07-24T11:44:43;24.00;99.90
37788;DHT22;23627;53.302;-6.362;2022-07-24T11:47:20;23.90;99.90
37788;DHT22;23627;53.302;-6.362;2022-07-24T11:49:51;23.80;99.90
37788;DHT22;23627;53.302;-6.362;2022-07-24T11:54:51;24.00;99.90
37788;DHT22;23627;53.302;-6.362;2022-07-24T11:57:37;24.00;99.90
37788;DHT22;23627;53.302;-6.362;2022-07-24T12:00:09;24.10;99.90
37788;DHT22;23627;53.302;-6.362;2022-07-24T12:02:37;24.30;99.90
37788;DHT22;23627;53.302;-6.362;2022-07-24T12:05:07;24.40;99.90
37788;DHT22;23627;53.302;-6.362;2022-07-24T12:07:34;24.40;99.90
37788;DHT22;23627;53.302;-6.362;2022-07-24T12:10:01;24.40;99.90
37788;DHT22;23627;53.302;-6.362;2022-07-24T12:12:31;24.40;99.90
37788;DHT22;23627;53.302;-6.362;2022-07-24T12:15:14;24.50;99.90
37788;DHT22;23627;53.302;-6.362;2022-07-24T12:20:31;24.60;99.90
37788;DHT22;23627;53.302;-6.362;2022-07-24T12:22:59;24.70;99.90
37788;DHT22;23627;53.302;-6.362;2022-07-24T12:25:25;24.70;99.90
37788;DHT22;23627;53.302;-6.362;2022-07-24T12:30:30;24.90;99.90
37788;DHT22;23627;53.302;-6.362;2022-07-24T12:32:57;25.00;99.90
37788;DHT22;23627;53.302;-6.362;2022-07-24T12:35:23;25.00;99.90
37788;DHT22;23627;53.302;-6.362;2022-07-24T12:37:51;25.10;99.90
37788;DHT22;23627;53.302;-6.362;2022-07-24T12:40:35;24.90;99.90
37788;DHT22;23627;53.302;-6.362;2022-07-24T12:43:09;25.00;99.90
37788;DHT22;23627;53.302;-6.362;2022-07-24T12:45:37;25.00;99.90
37788;DHT22;23627;53.302;-6.362;2022-07-24T12:48:20;25.30;99.90
37788;DHT22;23627;53.302;-6.362;2022-07-24T12:51:09;25.50;99.90
37788;DHT22;23627;53.302;-6.362;2022-07-24T12:53:41;25.50;99.90
37788;DHT22;23627;53.302;-6.362;2022-07-24T12:56:15;25.30;99.90
37788;DHT22;23627;53.302;-6.362;2022-07-24T12:58:59;25.30;99.90
37788;DHT22;23627;53.302;-6.362;2022-07-24T13:01:47;25.10;99.90
37788;DHT22;23627;53.302;-6.362;2022-07-24T13:04:14;25.00;99.90
37788;DHT22;23627;53.302;-6.362;2022-07-24T13:06:42;24.80;99.90
37788;DHT22;23627;53.302;-6.362;2022-07-24T13:09:11;24.60;99.90
37788;DHT22;23627;53.302;-6.362;2022-07-24T13:11:38;24.70;99.90
37788;DHT22;23627;53.302;-6.362;2022-07-24T13:14:05;24.80;99.90
37788;DHT22;23627;53.302;-6.362;2022-07-24T13:16:33;24.70;99.90
37788;DHT22;23627;53.302;-6.362;2022-07-24T13:19:00;24.80;99.90
37788;DHT22;23627;53.302;-6.362;2022-07-24T13:21:26;24.70;99.90
37788;DHT22;23627;53.302;-6.362;2022-07-24T13:23:52;24.70;99.90
37788;DHT22;23627;53.302;-6.362;2022-07-24T13:26:19;24.80;99.90
37788;DHT22;23627;53.302;-6.362;2022-07-24T13:28:45;24.70;99.90
37788;DHT22;23627;53.302;-6.362;2022-07-24T13:31:11;24.60;99.90
37788;DHT22;23627;53.302;-6.362;2022-07-24T13:33:37;24.70;99.90
37788;DHT22;23627;53.302;-6.362;2022-07-24T13:36:03;24.90;99.90
37788;DHT22;23627;53.302;-6.362;2022-07-24T13:38:29;24.80;99.90
37788;DHT22;23627;53.302;-6.362;2022-07-24T13:40:55;24.90;99.90
37788;DHT22;23627;53.302;-6.362;2022-07-24T13:43:21;24.70;99.90
37788;DHT22;23627;53.302;-6.362;2022-07-24T13:45:47;24.60;99.90
37788;DHT22;23627;53.302;-6.362;2022-07-24T13:48:12;24.60;99.90
37788;DHT22;23627;53.302;-6.362;2022-07-24T13:50:38;24.50;99.90
37788;DHT22;23627;53.302;-6.362;2022-07-24T13:53:04;24.60;99.90
37788;DHT22;23627;53.302;-6.362;2022-07-24T13:55:31;24.70;99.90
37788;DHT22;23627;53.302;-6.362;2022-07-24T13:57:57;24.80;99.90
37788;DHT22;23627;53.302;-6.362;2022-07-24T14:00:23;24.70;99.90
37788;DHT22;23627;53.302;-6.362;2022-07-24T14:02:50;24.60;99.90
37788;DHT22;23627;53.302;-6.362;2022-07-24T14:05:26;24.60;99.90
37788;DHT22;23627;53.302;-6.362;2022-07-24T14:07:53;24.50;99.90
37788;DHT22;23627;53.302;-6.362;2022-07-24T14:10:20;24.40;99.90
37788;DHT22;23627;53.302;-6.362;2022-07-24T14:12:47;24.40;99.90
37788;DHT22;23627;53.302;-6.362;2022-07-24T14:15:13;24.50;99.90
37788;DHT22;23627;53.302;-6.362;2022-07-24T14:17:40;24.60;99.90
37788;DHT22;23627;53.302;-6.362;2022-07-24T14:20:07;24.60;99.90
37788;DHT22;23627;53.302;-6.362;2022-07-24T14:22:34;24.60;99.90
37788;DHT22;23627;53.302;-6.362;2022-07-24T14:25:00;24.70;99.90
37788;DHT22;23627;53.302;-6.362;2022-07-24T14:27:27;24.80;99.90
37788;DHT22;23627;53.302;-6.362;2022-07-24T14:29:53;24.90;99.90
37788;DHT22;23627;53.302;-6.362;2022-07-24T14:32:19;24.80;99.90
37788;DHT22;23627;53.302;-6.362;2022-07-24T14:34:45;24.80;99.90
37788;DHT22;23627;53.302;-6.362;2022-07-24T14:37:11;24.70;99.90
37788;DHT22;23627;53.302;-6.362;2022-07-24T14:39:37;24.60;99.90
37788;DHT22;23627;53.302;-6.362;2022-07-24T14:42:03;24.50;99.90
37788;DHT22;23627;53.302;-6.362;2022-07-24T14:44:29;24.50;99.90
37788;DHT22;23627;53.302;-6.362;2022-07-24T14:46:54;24.60;99.90
37788;DHT22;23627;53.302;-6.362;2022-07-24T14:49:20;24.50;99.90
37788;DHT22;23627;53.302;-6.362;2022-07-24T14:51:46;24.50;99.90
37788;DHT22;23627;53.302;-6.362;2022-07-24T14:54:12;24.50;99.90
37788;DHT22;23627;53.302;-6.362;2022-07-24T14:56:38;24.40;99.90
37788;DHT22;23627;53.302;-6.362;2022-07-24T14:59:05;24.40;99.90
37788;DHT22;23627;53.302;-6.362;2022-07-24T15:01:32;24.40;99.90
37788;DHT22;23627;53.302;-6.362;2022-07-24T15:03:58;24.50;99.90
37788;DHT22;23627;53.302;-6.362;2022-07-24T15:06:23;24.40;99.90
37788;DHT22;23627;53.302;-6.362;2022-07-24T15:08:49;24.40;99.90
37788;DHT22;23627;53.302;-6.362;2022-07-24T15:11:15;24.30;99.90
37788;DHT22;23627;53.302;-6.362;2022-07-24T15:13:43;24.30;99.90
37788;DHT22;23627;53.302;-6.362;2022-07-24T15:16:09;24.10;99.90
37788;DHT22;23627;53.302;-6.362;2022-07-24T15:18:35;23.90;99.90
37788;DHT22;23627;53.302;-6.362;2022-07-24T15:21:02;23.90;99.90
37788;DHT22;23627;53.302;-6.362;2022-07-24T15:23:28;23.80;99.90
37788;DHT22;23627;53.302;-6.362;2022-07-24T15:25:54;23.80;99.90
37788;DHT22;23627;53.302;-6.362;2022-07-24T15:28:20;23.80;99.90
37788;DHT22;23627;53.302;-6.362;2022-07-24T15:30:46;23.80;99.90
37788;DHT22;23627;53.302;-6.362;2022-07-24T15:33:12;23.90;99.90
37788;DHT22;23627;53.302;-6.362;2022-07-24T15:35:37;23.90;99.90
37788;DHT22;23627;53.302;-6.362;2022-07-24T15:38:03;24.00;99.90
37788;DHT22;23627;53.302;-6.362;2022-07-24T15:40:29;23.90;99.90
37788;DHT22;23627;53.302;-6.362;2022-07-24T15:42:57;24.00;99.90